タシュケント の空港の天気 - METARとTAF

タシケント空港 ( UTTT / TAS ) - ウズベキスタン タシュケント
飛行場実況気象(Metar)
観測時間04/21 21:30 UZT (04/21 16:30 UTC)
風向・風速北西 2m/s
視程10km以上
天気現象
全天の8割程度の雲 雲底高度 1580m
気温14℃
湿度94%
気圧1018hPa
METARUTTT 211630Z 31004KT 9999 BKN052CB 14/13 Q1018 R08R/19//60 NOSIG
過去の天気等 Google飛行場航空写真 Wunderground天気予報

過去48時間のMETAR

飛行場予報(TAF)
発表時間: 4/21 16:00 UZT (4/21 11:00 UTC)
予報対象時間: 21日17時 UZT ~ 22日17時 UZT
風向・風速西南西 6m/s
視程7000m
全天の4割程度の雲 雲底高度 460m
全天の4割程度の積乱雲 雲底高度 1520m
全天の8割程度の雲 雲底高度 3050m
21日17時 UZT ~ 22日5時 UZT に一時的に
風向・風速不定 8m/s 瞬間風速 13m/s
視程1500m
天気現象弱い雷雨 もや
全天の8割程度の雲 雲底高度 150m
全天の8割程度の積乱雲 雲底高度 910m
TAF UTTT 211100Z 2112/2212 24012KT 7000 SCT015 SCT050CB BKN100
TEMPO 2112/2124 VRB15G25KT 1500 -TSRA BR BKN005 BKN030CB